createdAt,value
2022-10-11T00:03:46.878Z,14.45
2022-10-11T00:08:43.873Z,13.79
2022-10-11T00:13:41.100Z,13.96
2022-10-11T00:18:38.890Z,14.09
2022-10-11T00:23:37.486Z,13.35
2022-10-11T00:28:36.061Z,14.03
2022-10-11T00:33:34.175Z,13.84
2022-10-11T00:38:37.101Z,14.05
2022-10-11T00:43:46.050Z,13.92
2022-10-11T00:48:46.437Z,13.71
2022-10-11T00:53:46.270Z,13.42
2022-10-11T00:58:49.351Z,13.90
2022-10-11T01:04:07.335Z,14.26
2022-10-11T01:09:31.542Z,13.81
2022-10-11T01:15:10.931Z,13.79
2022-10-11T01:20:36.318Z,13.67
2022-10-11T01:25:40.444Z,14.05
2022-10-11T01:31:10.626Z,13.83
2022-10-11T01:36:47.256Z,13.63
2022-10-11T01:41:49.147Z,13.57
2022-10-11T01:46:47.797Z,13.56
2022-10-11T01:51:49.061Z,13.66
2022-10-11T01:57:01.041Z,13.22
2022-10-11T02:02:10.797Z,13.16
2022-10-11T02:07:20.890Z,12.95
2022-10-11T02:12:24.589Z,13.58
2022-10-11T02:17:33.343Z,12.80
2022-10-11T02:22:34.648Z,13.15
2022-10-11T02:27:37.286Z,13.08
2022-10-11T02:32:40.102Z,13.29
2022-10-11T02:37:45.274Z,13.40
2022-10-11T02:42:45.742Z,13.62
2022-10-11T02:47:46.199Z,13.53
2022-10-11T02:52:47.346Z,13.70
2022-10-11T02:57:47.243Z,13.75
2022-10-11T03:02:45.243Z,14.14
2022-10-11T03:07:42.428Z,13.81
2022-10-11T03:12:41.288Z,14.24
2022-10-11T03:17:38.280Z,14.40
2022-10-11T03:22:36.351Z,14.50
2022-10-11T03:27:42.073Z,14.11
2022-10-11T03:32:47.065Z,14.20
2022-10-11T03:37:45.363Z,13.81
2022-10-11T03:42:51.020Z,14.26
2022-10-11T03:47:51.086Z,14.10
2022-10-11T03:52:50.400Z,13.86
2022-10-11T03:57:47.491Z,14.04
2022-10-11T04:03:06.582Z,13.74
2022-10-11T04:08:21.534Z,13.46
2022-10-11T04:13:19.843Z,13.03
2022-10-11T04:18:30.990Z,13.11
2022-10-11T04:23:33.867Z,13.03
2022-10-11T04:28:36.496Z,12.83
2022-10-11T04:33:37.160Z,12.53
2022-10-11T04:44:02.190Z,12.71
2022-10-11T04:50:07.641Z,13.18
2022-10-11T04:55:08.619Z,13.19
2022-10-11T05:00:06.575Z,13.30
2022-10-11T05:05:08.568Z,13.20
2022-10-11T05:10:14.017Z,13.62
2022-10-11T05:15:22.224Z,13.19
2022-10-11T05:20:25.855Z,13.63
2022-10-11T05:25:27.218Z,13.37
2022-10-11T05:30:27.062Z,13.78
2022-10-11T05:35:24.322Z,13.86
2022-10-11T05:40:27.720Z,13.61
2022-10-11T05:45:54.343Z,14.16
2022-10-11T05:51:12.399Z,13.43
2022-10-11T05:56:41.673Z,14.00
2022-10-11T06:01:43.390Z,13.32
2022-10-11T06:28:13.880Z,14.02
2022-10-11T06:33:11.235Z,14.29
2022-10-11T06:43:32.474Z,14.88
2022-10-11T06:48:53.500Z,14.54
2022-10-11T06:59:24.960Z,15.57
2022-10-11T07:04:29.788Z,15.58
2022-10-11T07:09:30.493Z,15.77
2022-10-11T07:14:32.034Z,16.03
2022-10-11T07:19:57.830Z,16.67
2022-10-11T07:24:54.995Z,16.65
2022-10-11T07:29:55.722Z,17.04
2022-10-11T07:35:11.178Z,17.76
2022-10-11T07:40:16.606Z,17.86
2022-10-11T07:45:17.619Z,17.39
2022-10-11T07:50:51.093Z,17.29
2022-10-11T07:56:02.077Z,17.96
2022-10-11T08:01:18.362Z,18.04
2022-10-11T08:06:26.766Z,17.92
2022-10-11T08:11:25.464Z,18.29
2022-10-11T08:16:25.813Z,19.11
2022-10-11T08:21:32.616Z,18.97
2022-10-11T08:26:53.768Z,19.24
2022-10-11T08:31:51.449Z,19.45
2022-10-11T08:36:48.476Z,19.70
2022-10-11T08:41:51.337Z,19.95
2022-10-11T08:47:00.548Z,19.95
2022-10-11T08:52:36.263Z,20.27
2022-10-11T08:57:38.948Z,20.14
2022-10-11T09:03:29.569Z,20.15
2022-10-11T09:09:02.529Z,19.70
2022-10-11T09:14:29.868Z,19.61
2022-10-11T09:19:53.686Z,19.71
2022-10-11T09:25:07.600Z,18.93
2022-10-11T09:30:12.287Z,18.95
2022-10-11T09:35:43.455Z,19.53
2022-10-11T09:41:05.535Z,19.59
2022-10-11T09:46:03.194Z,19.49
2022-10-11T09:51:19.049Z,19.84
2022-10-11T09:56:23.675Z,20.34
2022-10-11T10:01:29.326Z,20.48
2022-10-11T10:07:00.278Z,20.91
2022-10-11T10:12:10.950Z,21.38
2022-10-11T10:17:16.926Z,21.70
2022-10-11T10:22:19.993Z,22.26
2022-10-11T10:27:24.039Z,21.91
2022-10-11T10:32:28.130Z,21.94
2022-10-11T10:38:30.722Z,22.51
2022-10-11T10:49:53.088Z,22.30
2022-10-11T10:54:58.345Z,22.37
2022-10-11T11:00:14.054Z,23.01
2022-10-11T11:05:26.131Z,23.33
2022-10-11T11:10:35.219Z,22.71
2022-10-11T11:15:39.356Z,22.78
2022-10-11T11:21:22.151Z,22.16
2022-10-11T11:32:28.662Z,22.75
2022-10-11T11:37:34.195Z,22.19
2022-10-11T11:42:41.929Z,22.77
2022-10-11T11:48:04.355Z,21.91
2022-10-11T11:53:09.315Z,21.72
2022-10-11T11:58:13.787Z,22.04
2022-10-11T12:03:17.813Z,21.90
2022-10-11T12:08:26.907Z,21.42
2022-10-11T12:13:32.267Z,22.11
2022-10-11T12:18:37.186Z,21.97
2022-10-11T12:23:46.543Z,22.09
2022-10-11T12:29:45.764Z,21.96
2022-10-11T12:34:47.867Z,22.14
2022-10-11T12:40:29.798Z,21.39
2022-10-11T12:46:09.027Z,21.96
2022-10-11T12:51:44.443Z,21.70
2022-10-11T12:57:46.293Z,21.96
2022-10-11T13:03:02.203Z,21.23
2022-10-11T13:08:41.861Z,21.40
2022-10-11T13:14:08.518Z,20.94
2022-10-11T13:19:51.186Z,20.91
2022-10-11T13:24:49.879Z,20.57
2022-10-11T13:29:50.697Z,20.68
2022-10-11T13:39:59.948Z,20.93
2022-10-11T13:45:30.087Z,20.67
2022-10-11T13:51:21.906Z,20.98
2022-10-11T13:56:20.143Z,20.95
2022-10-11T14:01:48.903Z,21.19
2022-10-11T14:06:52.012Z,20.93
2022-10-11T14:11:50.572Z,21.09
2022-10-11T14:17:32.222Z,21.47
2022-10-11T14:23:21.271Z,20.75
2022-10-11T14:28:44.556Z,20.81
2022-10-11T14:34:03.350Z,20.85
2022-10-11T14:39:00.434Z,20.83
2022-10-11T14:43:58.365Z,20.98
2022-10-11T14:48:56.725Z,21.01
2022-10-11T14:53:58.912Z,21.03
2022-10-11T14:59:01.099Z,20.97
2022-10-11T15:04:51.096Z,21.44
2022-10-11T15:09:55.960Z,21.16
2022-10-11T15:15:40.449Z,21.41
2022-10-11T15:20:44.470Z,21.10
2022-10-11T15:26:40.874Z,20.32
2022-10-11T15:31:52.369Z,20.32
2022-10-11T15:36:51.096Z,20.32
2022-10-11T15:41:48.365Z,20.25
2022-10-11T15:47:38.409Z,20.51
2022-10-11T15:58:44.237Z,20.57
2022-10-11T16:05:44.838Z,20.36
2022-10-11T16:09:56.622Z,20.61
2022-10-11T16:15:01.329Z,20.16
2022-10-11T16:20:15.408Z,19.94
2022-10-11T16:25:46.163Z,19.16
2022-10-11T16:30:50.993Z,19.51
2022-10-11T16:35:50.723Z,19.33
2022-10-11T16:41:29.183Z,19.86
2022-10-11T16:46:26.898Z,19.18
2022-10-11T16:51:34.110Z,19.94
2022-10-11T16:57:10.882Z,19.30
2022-10-11T17:02:16.562Z,20.11
2022-10-11T17:24:55.386Z,20.15
2022-10-11T17:30:01.919Z,19.75
2022-10-11T17:35:46.991Z,20.27
2022-10-11T17:41:00.677Z,20.13
2022-10-11T17:45:59.685Z,20.26
2022-10-11T17:52:19.596Z,20.23
2022-10-11T17:57:35.262Z,19.79
2022-10-11T18:02:57.223Z,20.15
2022-10-11T18:07:55.211Z,19.42
2022-10-11T18:13:23.391Z,20.16
2022-10-11T18:18:23.164Z,19.65
2022-10-11T18:23:47.304Z,20.15
2022-10-11T18:28:47.013Z,19.50
2022-10-11T18:33:45.888Z,19.57
2022-10-11T18:38:46.441Z,20.08
2022-10-11T18:43:59.628Z,19.65
2022-10-11T18:49:03.055Z,19.84
2022-10-11T18:54:01.242Z,19.78
2022-10-11T18:59:19.540Z,19.41
2022-10-11T19:04:25.268Z,19.91
2022-10-11T19:09:40.609Z,19.83
2022-10-11T19:14:53.529Z,19.12
2022-10-11T19:20:00.625Z,19.84
2022-10-11T19:25:04.214Z,19.64
2022-10-11T19:30:07.964Z,19.60
2022-10-11T19:35:15.266Z,19.76
2022-10-11T19:40:21.351Z,19.40
2022-10-11T19:45:21.105Z,19.66
2022-10-11T19:50:18.340Z,19.07
2022-10-11T19:55:17.712Z,19.31
2022-10-11T20:00:17.229Z,19.66
2022-10-11T20:05:31.230Z,19.47
2022-10-11T20:10:35.094Z,19.63
2022-10-11T20:15:42.939Z,19.45
2022-10-11T20:20:57.551Z,19.56
2022-10-11T20:26:07.227Z,19.53
2022-10-11T20:31:11.096Z,19.13
2022-10-11T20:36:12.609Z,18.69
2022-10-11T20:41:11.789Z,18.89
2022-10-11T20:46:11.482Z,18.98
2022-10-11T20:51:14.497Z,19.12
2022-10-11T20:56:13.549Z,19.19
2022-10-11T21:01:14.666Z,18.51
2022-10-11T21:06:24.335Z,18.80
2022-10-11T21:11:23.334Z,19.08
2022-10-11T21:16:24.236Z,18.54
2022-10-11T21:21:24.155Z,19.19
2022-10-11T21:26:24.795Z,18.54
2022-10-11T21:31:22.797Z,18.85
2022-10-11T21:36:22.233Z,19.26
2022-10-11T21:41:24.867Z,19.07
2022-10-11T21:46:32.531Z,18.97
2022-10-11T21:51:35.582Z,19.32
2022-10-11T21:56:32.808Z,19.15
2022-10-11T22:01:30.178Z,18.68
2022-10-11T22:06:27.413Z,18.71
2022-10-11T22:11:25.497Z,18.96
2022-10-11T22:16:23.458Z,19.15
2022-10-11T22:21:24.160Z,18.78
2022-10-11T22:26:30.838Z,18.93
2022-10-11T22:31:41.947Z,19.20
2022-10-11T22:36:41.943Z,18.67
2022-10-11T22:42:08.804Z,18.74
2022-10-11T22:47:16.942Z,18.86
2022-10-11T22:52:17.272Z,18.80
2022-10-11T22:57:14.450Z,18.95
2022-10-11T23:02:12.733Z,18.56
2022-10-11T23:07:09.892Z,19.09
2022-10-11T23:12:07.999Z,18.96
2022-10-11T23:17:10.699Z,18.86
2022-10-11T23:22:27.554Z,19.00
2022-10-11T23:27:41.546Z,18.68
2022-10-11T23:32:43.904Z,19.10
2022-10-11T23:37:51.758Z,18.49
2022-10-11T23:43:04.902Z,18.39
2022-10-11T23:48:05.386Z,18.95
2022-10-11T23:53:11.729Z,18.97
2022-10-11T23:58:09.411Z,18.82
